sensor_id;sensor_type;location;lat;lon;timestamp;pressure;altitude;pressure_sealevel;temperature;humidity
62126;BME280;69591;53.282;6.150;2023-09-19T00:00:29;100585.75;;;3.78;61.25
62126;BME280;69591;53.282;6.150;2023-09-19T00:01:31;100584.34;;;3.81;61.82
62126;BME280;69591;53.282;6.150;2023-09-19T00:02:32;100582.78;;;3.80;62.26
62126;BME280;69591;53.282;6.150;2023-09-19T00:03:34;100581.56;;;3.86;62.61
62126;BME280;69591;53.282;6.150;2023-09-19T00:04:36;100580.19;;;3.88;63.20
62126;BME280;69591;53.282;6.150;2023-09-19T00:05:38;100574.25;;;3.91;63.33
62126;BME280;69591;53.282;6.150;2023-09-19T00:06:40;100576.28;;;3.94;63.77
62126;BME280;69591;53.282;6.150;2023-09-19T00:07:42;100570.34;;;3.97;64.27
62126;BME280;69591;53.282;6.150;2023-09-19T00:08:44;100571.31;;;4.01;64.47
62126;BME280;69591;53.282;6.150;2023-09-19T00:09:45;100545.47;;;3.88;65.02
62126;BME280;69591;53.282;6.150;2023-09-19T00:10:47;100575.75;;;4.06;65.29
62126;BME280;69591;53.282;6.150;2023-09-19T00:11:49;100562.56;;;4.09;65.37
62126;BME280;69591;53.282;6.150;2023-09-19T00:12:53;100569.38;;;4.15;66.04
62126;BME280;69591;53.282;6.150;2023-09-19T00:13:55;100567.69;;;4.19;66.59
62126;BME280;69591;53.282;6.150;2023-09-19T00:14:56;100566.75;;;4.24;66.78
62126;BME280;69591;53.282;6.150;2023-09-19T00:15:58;100572.28;;;4.27;67.65
62126;BME280;69591;53.282;6.150;2023-09-19T00:17:00;100570.09;;;4.29;67.42
62126;BME280;69591;53.282;6.150;2023-09-19T00:18:02;100553.09;;;4.25;67.73
62126;BME280;69591;53.282;6.150;2023-09-19T00:19:04;100573.63;;;4.38;67.96
62126;BME280;69591;53.282;6.150;2023-09-19T00:20:06;100566.09;;;4.40;68.48
62126;BME280;69591;53.282;6.150;2023-09-19T00:21:08;100578.53;;;4.45;68.45
62126;BME280;69591;53.282;6.150;2023-09-19T00:22:10;100565.34;;;4.48;68.96
62126;BME280;69591;53.282;6.150;2023-09-19T00:23:12;100558.28;;;4.52;69.30
62126;BME280;69591;53.282;6.150;2023-09-19T00:24:13;100556.09;;;4.54;69.76
62126;BME280;69591;53.282;6.150;2023-09-19T00:25:15;100564.00;;;4.59;70.04
62126;BME280;69591;53.282;6.150;2023-09-19T00:26:17;100566.03;;;4.63;70.00
62126;BME280;69591;53.282;6.150;2023-09-19T00:27:22;100574.25;;;4.66;70.42
62126;BME280;69591;53.282;6.150;2023-09-19T00:28:25;100571.41;;;4.71;70.08
62126;BME280;69591;53.282;6.150;2023-09-19T00:29:27;100563.09;;;4.73;71.02
62126;BME280;69591;53.282;6.150;2023-09-19T00:30:29;100574.75;;;4.77;71.15
62126;BME280;69591;53.282;6.150;2023-09-19T00:31:30;100570.38;;;4.81;71.13
62126;BME280;69591;53.282;6.150;2023-09-19T00:32:32;100578.88;;;4.83;72.02
62126;BME280;69591;53.282;6.150;2023-09-19T00:33:35;100571.81;;;4.87;71.67
62126;BME280;69591;53.282;6.150;2023-09-19T00:34:37;100562.88;;;4.91;72.14
62126;BME280;69591;53.282;6.150;2023-09-19T00:35:39;100554.53;;;4.93;72.40
62126;BME280;69591;53.282;6.150;2023-09-19T00:36:40;100568.84;;;4.97;72.33
62126;BME280;69591;53.282;6.150;2023-09-19T00:37:42;100560.22;;;5.00;72.76
62126;BME280;69591;53.282;6.150;2023-09-19T00:38:44;100556.16;;;5.02;72.79
62126;BME280;69591;53.282;6.150;2023-09-19T00:39:46;100557.88;;;5.07;73.10
62126;BME280;69591;53.282;6.150;2023-09-19T00:40:49;100556.78;;;5.08;73.10
62126;BME280;69591;53.282;6.150;2023-09-19T00:41:51;100556.63;;;5.13;74.06
62126;BME280;69591;53.282;6.150;2023-09-19T00:42:57;100556.81;;;5.16;73.91
62126;BME280;69591;53.282;6.150;2023-09-19T00:44:01;100558.06;;;5.19;74.38
62126;BME280;69591;53.282;6.150;2023-09-19T00:45:02;100554.75;;;5.22;74.48
62126;BME280;69591;53.282;6.150;2023-09-19T00:46:04;100559.53;;;5.25;74.46
62126;BME280;69591;53.282;6.150;2023-09-19T00:47:06;100550.03;;;5.19;73.91
62126;BME280;69591;53.282;6.150;2023-09-19T00:48:08;100557.47;;;5.30;74.33
62126;BME280;69591;53.282;6.150;2023-09-19T00:49:10;100549.63;;;5.34;74.30
62126;BME280;69591;53.282;6.150;2023-09-19T00:50:13;100557.00;;;5.37;74.33
62126;BME280;69591;53.282;6.150;2023-09-19T00:51:16;100556.38;;;5.40;74.43
62126;BME280;69591;53.282;6.150;2023-09-19T00:52:18;100557.94;;;5.41;75.45
62126;BME280;69591;53.282;6.150;2023-09-19T00:53:22;100554.34;;;5.45;75.27
62126;BME280;69591;53.282;6.150;2023-09-19T00:54:25;100552.94;;;5.48;75.34
62126;BME280;69591;53.282;6.150;2023-09-19T00:55:29;100554.19;;;5.50;75.97
62126;BME280;69591;53.282;6.150;2023-09-19T00:56:31;100557.03;;;5.54;75.98
62126;BME280;69591;53.282;6.150;2023-09-19T00:57:33;100557.19;;;5.57;75.75
62126;BME280;69591;53.282;6.150;2023-09-19T00:58:36;100549.66;;;5.59;75.71
62126;BME280;69591;53.282;6.150;2023-09-19T00:59:39;100559.72;;;5.62;76.21
62126;BME280;69591;53.282;6.150;2023-09-19T01:00:41;100563.66;;;5.65;76.65
62126;BME280;69591;53.282;6.150;2023-09-19T01:01:43;100564.13;;;5.67;76.12
62126;BME280;69591;53.282;6.150;2023-09-19T01:02:45;100567.75;;;5.71;77.14
62126;BME280;69591;53.282;6.150;2023-09-19T01:03:47;100561.31;;;5.72;77.42
62126;BME280;69591;53.282;6.150;2023-09-19T01:04:49;100567.16;;;5.74;76.50
62126;BME280;69591;53.282;6.150;2023-09-19T01:05:51;100563.03;;;5.76;77.55
62126;BME280;69591;53.282;6.150;2023-09-19T01:06:53;100569.34;;;5.80;77.79
62126;BME280;69591;53.282;6.150;2023-09-19T01:07:55;100563.69;;;5.82;77.15
62126;BME280;69591;53.282;6.150;2023-09-19T01:08:57;100568.44;;;5.85;76.81
62126;BME280;69591;53.282;6.150;2023-09-19T01:09:59;100566.22;;;5.87;78.07
62126;BME280;69591;53.282;6.150;2023-09-19T01:11:09;100561.34;;;5.89;77.64
62126;BME280;69591;53.282;6.150;2023-09-19T01:12:18;100571.75;;;5.90;77.22
62126;BME280;69591;53.282;6.150;2023-09-19T01:13:26;100566.84;;;5.92;77.96
62126;BME280;69591;53.282;6.150;2023-09-19T01:14:37;100563.88;;;5.94;78.19
62126;BME280;69591;53.282;6.150;2023-09-19T01:15:51;100558.50;;;5.94;78.45
62126;BME280;69591;53.282;6.150;2023-09-19T01:17:01;100565.91;;;5.97;78.56
62126;BME280;69591;53.282;6.150;2023-09-19T01:18:12;100564.78;;;5.98;77.80
62126;BME280;69591;53.282;6.150;2023-09-19T01:19:33;100568.28;;;5.98;78.62
62126;BME280;69591;53.282;6.150;2023-09-19T01:20:53;100559.91;;;6.00;78.77
62126;BME280;69591;53.282;6.150;2023-09-19T01:22:00;100556.28;;;6.04;78.94
62126;BME280;69591;53.282;6.150;2023-09-19T01:23:11;100570.94;;;6.07;78.93
62126;BME280;69591;53.282;6.150;2023-09-19T01:24:34;100558.97;;;6.04;78.45
62126;BME280;69591;53.282;6.150;2023-09-19T01:26:05;100562.44;;;6.05;79.24
62126;BME280;69591;53.282;6.150;2023-09-19T01:27:21;100560.69;;;6.09;79.33
62126;BME280;69591;53.282;6.150;2023-09-19T01:28:31;100568.09;;;6.12;78.98
62126;BME280;69591;53.282;6.150;2023-09-19T01:29:38;100563.69;;;6.16;79.44
62126;BME280;69591;53.282;6.150;2023-09-19T01:30:43;100563.03;;;6.19;79.23
62126;BME280;69591;53.282;6.150;2023-09-19T01:31:45;100566.22;;;6.21;79.74
62126;BME280;69591;53.282;6.150;2023-09-19T01:32:50;100566.38;;;6.25;79.11
62126;BME280;69591;53.282;6.150;2023-09-19T01:33:56;100568.72;;;6.26;78.99
62126;BME280;69591;53.282;6.150;2023-09-19T01:34:57;100566.50;;;6.28;79.78
62126;BME280;69591;53.282;6.150;2023-09-19T01:35:59;100565.84;;;6.31;79.15
62126;BME280;69591;53.282;6.150;2023-09-19T01:37:01;100556.72;;;6.32;80.53
62126;BME280;69591;53.282;6.150;2023-09-19T01:38:03;100565.25;;;6.34;79.71
62126;BME280;69591;53.282;6.150;2023-09-19T01:39:06;100564.59;;;6.37;79.77
62126;BME280;69591;53.282;6.150;2023-09-19T01:40:10;100558.28;;;6.33;80.32
62126;BME280;69591;53.282;6.150;2023-09-19T01:41:16;100566.66;;;6.40;80.10
62126;BME280;69591;53.282;6.150;2023-09-19T01:42:30;100567.13;;;6.42;80.93
62126;BME280;69591;53.282;6.150;2023-09-19T01:43:38;100573.25;;;6.43;80.98
62126;BME280;69591;53.282;6.150;2023-09-19T01:44:51;100571.38;;;6.43;80.86
62126;BME280;69591;53.282;6.150;2023-09-19T01:46:01;100564.13;;;6.44;80.01
62126;BME280;69591;53.282;6.150;2023-09-19T01:47:15;100573.41;;;6.46;80.64
62126;BME280;69591;53.282;6.150;2023-09-19T01:48:25;100576.56;;;6.48;80.08
62126;BME280;69591;53.282;6.150;2023-09-19T01:49:37;100579.69;;;6.50;81.01
62126;BME280;69591;53.282;6.150;2023-09-19T01:50:44;100587.13;;;6.53;81.14
62126;BME280;69591;53.282;6.150;2023-09-19T01:51:55;100582.84;;;6.52;80.22
62126;BME280;69591;53.282;6.150;2023-09-19T01:53:02;100584.44;;;6.53;80.43
62126;BME280;69591;53.282;6.150;2023-09-19T01:54:09;100589.81;;;6.53;80.05
62126;BME280;69591;53.282;6.150;2023-09-19T01:55:14;100579.69;;;6.50;80.22
62126;BME280;69591;53.282;6.150;2023-09-19T01:56:23;100575.28;;;6.54;79.47
62126;BME280;69591;53.282;6.150;2023-09-19T01:57:28;100576.06;;;6.55;79.00
62126;BME280;69591;53.282;6.150;2023-09-19T01:58:34;100575.28;;;6.54;79.05
62126;BME280;69591;53.282;6.150;2023-09-19T01:59:57;100575.59;;;6.53;78.99
62126;BME280;69591;53.282;6.150;2023-09-19T02:01:03;100583.16;;;6.51;78.10
62126;BME280;69591;53.282;6.150;2023-09-19T02:02:06;100574.19;;;6.47;78.02
62126;BME280;69591;53.282;6.150;2023-09-19T02:03:10;100579.69;;;6.50;78.28
62126;BME280;69591;53.282;6.150;2023-09-19T02:04:13;100585.69;;;6.47;77.41
62126;BME280;69591;53.282;6.150;2023-09-19T02:05:22;100583.66;;;6.44;76.94
62126;BME280;69591;53.282;6.150;2023-09-19T02:06:24;100589.34;;;6.43;76.90
62126;BME280;69591;53.282;6.150;2023-09-19T02:07:26;100585.25;;;6.37;75.12
62126;BME280;69591;53.282;6.150;2023-09-19T02:08:27;100598.66;;;6.37;75.39
62126;BME280;69591;53.282;6.150;2023-09-19T02:09:30;100598.50;;;6.33;75.03
62126;BME280;69591;53.282;6.150;2023-09-19T02:10:32;100594.56;;;6.31;73.28
62126;BME280;69591;53.282;6.150;2023-09-19T02:11:34;100606.25;;;6.26;72.61
62126;BME280;69591;53.282;6.150;2023-09-19T02:12:36;100607.50;;;6.20;72.52
62126;BME280;69591;53.282;6.150;2023-09-19T02:13:39;100612.41;;;6.18;71.37
62126;BME280;69591;53.282;6.150;2023-09-19T02:14:41;100619.31;;;6.10;70.09
62126;BME280;69591;53.282;6.150;2023-09-19T02:15:43;100626.13;;;6.08;69.69
62126;BME280;69591;53.282;6.150;2023-09-19T02:16:46;100637.78;;;6.03;68.67
62126;BME280;69591;53.282;6.150;2023-09-19T02:17:48;100646.78;;;5.99;68.69
62126;BME280;69591;53.282;6.150;2023-09-19T02:18:50;100644.25;;;5.94;68.06
62126;BME280;69591;53.282;6.150;2023-09-19T02:19:52;100646.13;;;5.85;66.96
62126;BME280;69591;53.282;6.150;2023-09-19T02:20:53;100656.97;;;5.80;67.05
62126;BME280;69591;53.282;6.150;2023-09-19T02:21:55;100650.63;;;5.76;66.52
62126;BME280;69591;53.282;6.150;2023-09-19T02:22:57;100658.81;;;5.71;66.20
62126;BME280;69591;53.282;6.150;2023-09-19T02:23:58;100667.00;;;5.66;65.21
62126;BME280;69591;53.282;6.150;2023-09-19T02:25:00;100662.56;;;5.61;64.56
62126;BME280;69591;53.282;6.150;2023-09-19T02:26:02;100671.53;;;5.57;63.73
62126;BME280;69591;53.282;6.150;2023-09-19T02:27:04;100680.03;;;5.50;63.18
62126;BME280;69591;53.282;6.150;2023-09-19T02:28:06;100669.78;;;5.44;62.79
62126;BME280;69591;53.282;6.150;2023-09-19T02:29:09;100684.06;;;5.39;63.23
62126;BME280;69591;53.282;6.150;2023-09-19T02:30:12;100680.75;;;5.34;62.00
62126;BME280;69591;53.282;6.150;2023-09-19T02:31:13;100686.25;;;5.29;62.44
62126;BME280;69591;53.282;6.150;2023-09-19T02:32:17;100681.03;;;5.24;61.95
62126;BME280;69591;53.282;6.150;2023-09-19T02:33:19;100681.47;;;5.17;61.61
62126;BME280;69591;53.282;6.150;2023-09-19T02:34:20;100680.53;;;5.13;61.13
62126;BME280;69591;53.282;6.150;2023-09-19T02:35:22;100686.78;;;5.09;60.94
62126;BME280;69591;53.282;6.150;2023-09-19T02:36:24;100685.31;;;5.03;60.84
62126;BME280;69591;53.282;6.150;2023-09-19T02:37:26;100694.28;;;4.98;60.77
62126;BME280;69591;53.282;6.150;2023-09-19T02:38:28;100694.41;;;4.93;59.90
62126;BME280;69591;53.282;6.150;2023-09-19T02:39:29;100695.31;;;4.89;60.13
62126;BME280;69591;53.282;6.150;2023-09-19T02:40:31;100697.34;;;4.83;59.94
62126;BME280;69591;53.282;6.150;2023-09-19T02:41:34;100697.59;;;4.73;59.52
62126;BME280;69591;53.282;6.150;2023-09-19T02:42:36;100713.31;;;4.75;59.30
62126;BME280;69591;53.282;6.150;2023-09-19T02:43:37;100711.88;;;4.69;58.64
62126;BME280;69591;53.282;6.150;2023-09-19T02:44:40;100712.47;;;4.66;58.71
62126;BME280;69591;53.282;6.150;2023-09-19T02:45:41;100720.63;;;4.60;58.82
62126;BME280;69591;53.282;6.150;2023-09-19T02:46:43;100719.66;;;4.56;58.63
62126;BME280;69591;53.282;6.150;2023-09-19T02:47:47;100729.38;;;4.52;58.22
62126;BME280;69591;53.282;6.150;2023-09-19T02:48:49;100727.41;;;4.44;58.62
62126;BME280;69591;53.282;6.150;2023-09-19T02:49:51;100726.59;;;4.44;58.21
62126;BME280;69591;53.282;6.150;2023-09-19T02:50:52;100733.66;;;4.40;58.30
62126;BME280;69591;53.282;6.150;2023-09-19T02:51:54;100736.25;;;4.31;57.96
62126;BME280;69591;53.282;6.150;2023-09-19T02:52:56;100748.53;;;4.32;57.93
62126;BME280;69591;53.282;6.150;2023-09-19T02:53:58;100750.81;;;4.25;57.56
62126;BME280;69591;53.282;6.150;2023-09-19T02:55:00;100761.00;;;4.23;57.68
62126;BME280;69591;53.282;6.150;2023-09-19T02:56:01;100747.47;;;4.20;57.47
62126;BME280;69591;53.282;6.150;2023-09-19T02:57:03;100736.59;;;4.16;57.13
62126;BME280;69591;53.282;6.150;2023-09-19T02:58:06;100743.13;;;4.10;57.03
62126;BME280;69591;53.282;6.150;2023-09-19T02:59:08;100749.09;;;4.07;57.31
62126;BME280;69591;53.282;6.150;2023-09-19T03:00:11;100728.28;;;4.04;57.09
62126;BME280;69591;53.282;6.150;2023-09-19T03:01:14;100712.41;;;3.99;57.11
62126;BME280;69591;53.282;6.150;2023-09-19T03:02:15;100718.03;;;3.98;56.78
62126;BME280;69591;53.282;6.150;2023-09-19T03:03:19;100715.94;;;3.95;56.54
62126;BME280;69591;53.282;6.150;2023-09-19T03:04:21;100710.13;;;3.93;56.87
62126;BME280;69591;53.282;6.150;2023-09-19T03:05:23;100712.28;;;3.91;56.65
62126;BME280;69591;53.282;6.150;2023-09-19T03:06:26;100713.69;;;3.88;57.07
62126;BME280;69591;53.282;6.150;2023-09-19T03:07:28;100712.91;;;3.88;57.58
62126;BME280;69591;53.282;6.150;2023-09-19T03:08:30;100712.09;;;3.87;57.78
62126;BME280;69591;53.282;6.150;2023-09-19T03:09:31;100714.78;;;3.87;58.09
62126;BME280;69591;53.282;6.150;2023-09-19T03:10:33;100711.31;;;3.87;58.28
62126;BME280;69591;53.282;6.150;2023-09-19T03:11:35;100710.53;;;3.86;58.52
62126;BME280;69591;53.282;6.150;2023-09-19T03:12:37;100702.22;;;3.88;59.17
62126;BME280;69591;53.282;6.150;2023-09-19T03:13:38;100696.06;;;3.87;59.18
62126;BME280;69591;53.282;6.150;2023-09-19T03:14:41;100697.69;;;3.88;60.19
62126;BME280;69591;53.282;6.150;2023-09-19T03:15:42;100700.81;;;3.90;60.24
62126;BME280;69591;53.282;6.150;2023-09-19T03:16:44;100697.06;;;3.91;60.81
62126;BME280;69591;53.282;6.150;2023-09-19T03:17:48;100696.28;;;3.91;61.28
62126;BME280;69591;53.282;6.150;2023-09-19T03:18:56;100682.25;;;3.85;61.89
62126;BME280;69591;53.282;6.150;2023-09-19T03:19:58;100684.09;;;3.98;62.24
62126;BME280;69591;53.282;6.150;2023-09-19T03:21:00;100695.28;;;4.00;62.68
62126;BME280;69591;53.282;6.150;2023-09-19T03:22:03;100698.91;;;4.04;63.40
62126;BME280;69591;53.282;6.150;2023-09-19T03:23:05;100694.88;;;4.07;63.67
62126;BME280;69591;53.282;6.150;2023-09-19T03:24:07;100682.59;;;4.06;63.64
62126;BME280;69591;53.282;6.150;2023-09-19T03:25:09;100683.78;;;4.13;64.46
62126;BME280;69591;53.282;6.150;2023-09-19T03:26:13;100683.16;;;4.16;64.64
62126;BME280;69591;53.282;6.150;2023-09-19T03:27:15;100685.22;;;4.19;65.15
62126;BME280;69591;53.282;6.150;2023-09-19T03:28:17;100672.84;;;4.23;65.60
62126;BME280;69591;53.282;6.150;2023-09-19T03:29:19;100666.91;;;4.26;65.86
62126;BME280;69591;53.282;6.150;2023-09-19T03:30:20;100664.41;;;4.30;66.27
62126;BME280;69591;53.282;6.150;2023-09-19T03:31:22;100667.25;;;4.33;66.67
62126;BME280;69591;53.282;6.150;2023-09-19T03:32:24;100657.06;;;4.35;66.86
62126;BME280;69591;53.282;6.150;2023-09-19T03:33:26;100667.66;;;4.40;66.89
62126;BME280;69591;53.282;6.150;2023-09-19T03:34:29;100665.28;;;4.39;67.49
62126;BME280;69591;53.282;6.150;2023-09-19T03:35:31;100669.91;;;4.47;67.73
62126;BME280;69591;53.282;6.150;2023-09-19T03:36:33;100662.84;;;4.51;67.95
62126;BME280;69591;53.282;6.150;2023-09-19T03:37:35;100664.09;;;4.53;68.54
62126;BME280;69591;53.282;6.150;2023-09-19T03:38:37;100658.94;;;4.57;68.91
62126;BME280;69591;53.282;6.150;2023-09-19T03:39:39;100660.69;;;4.61;68.93
62126;BME280;69591;53.282;6.150;2023-09-19T03:40:40;100660.38;;;4.63;69.09
62126;BME280;69591;53.282;6.150;2023-09-19T03:41:42;100658.69;;;4.67;69.34
62126;BME280;69591;53.282;6.150;2023-09-19T03:42:44;100650.38;;;4.69;69.39
62126;BME280;69591;53.282;6.150;2023-09-19T03:43:47;100652.44;;;4.72;69.91
62126;BME280;69591;53.282;6.150;2023-09-19T03:44:49;100655.00;;;4.77;70.44
62126;BME280;69591;53.282;6.150;2023-09-19T03:45:51;100646.34;;;4.80;70.61
62126;BME280;69591;53.282;6.150;2023-09-19T03:46:53;100648.41;;;4.83;70.88
62126;BME280;69591;53.282;6.150;2023-09-19T03:47:55;100644.81;;;4.87;70.61
62126;BME280;69591;53.282;6.150;2023-09-19T03:48:58;100641.38;;;4.87;70.87
62126;BME280;69591;53.282;6.150;2023-09-19T03:50:01;100644.38;;;4.94;71.51
62126;BME280;69591;53.282;6.150;2023-09-19T03:51:03;100654.47;;;4.97;71.20
62126;BME280;69591;53.282;6.150;2023-09-19T03:52:05;100646.13;;;4.98;72.09
62126;BME280;69591;53.282;6.150;2023-09-19T03:53:06;100639.06;;;5.02;71.35
62126;BME280;69591;53.282;6.150;2023-09-19T03:54:08;100646.16;;;5.07;71.86
62126;BME280;69591;53.282;6.150;2023-09-19T03:55:10;100645.06;;;5.08;72.47
62126;BME280;69591;53.282;6.150;2023-09-19T03:56:13;100633.75;;;5.11;72.14
62126;BME280;69591;53.282;6.150;2023-09-19T03:57:15;100640.06;;;5.15;72.91
62126;BME280;69591;53.282;6.150;2023-09-19T03:58:16;100639.44;;;5.18;72.75
62126;BME280;69591;53.282;6.150;2023-09-19T03:59:18;100633.59;;;5.16;72.75
62126;BME280;69591;53.282;6.150;2023-09-19T04:00:20;100638.22;;;5.24;72.82
62126;BME280;69591;53.282;6.150;2023-09-19T04:01:22;100630.66;;;5.26;73.34
62126;BME280;69591;53.282;6.150;2023-09-19T04:02:23;100634.28;;;5.30;73.94
62126;BME280;69591;53.282;6.150;2023-09-19T04:03:26;100632.09;;;5.32;74.13
62126;BME280;69591;53.282;6.150;2023-09-19T04:04:27;100632.28;;;5.35;73.90
62126;BME280;69591;53.282;6.150;2023-09-19T04:05:30;100635.13;;;5.39;74.65
62126;BME280;69591;53.282;6.150;2023-09-19T04:06:32;100623.31;;;5.40;74.14
62126;BME280;69591;53.282;6.150;2023-09-19T04:07:34;100626.16;;;5.43;74.01
62126;BME280;69591;53.282;6.150;2023-09-19T04:08:36;100635.44;;;5.46;74.66
62126;BME280;69591;53.282;6.150;2023-09-19T04:09:37;100639.41;;;5.48;74.72
62126;BME280;69591;53.282;6.150;2023-09-19T04:10:41;100632.31;;;5.52;75.58
62126;BME280;69591;53.282;6.150;2023-09-19T04:11:43;100632.00;;;5.54;74.56
62126;BME280;69591;53.282;6.150;2023-09-19T04:12:52;100629.81;;;5.56;75.80
62126;BME280;69591;53.282;6.150;2023-09-19T04:13:54;100631.06;;;5.58;75.30
62126;BME280;69591;53.282;6.150;2023-09-19T04:14:55;100627.75;;;5.61;75.91
62126;BME280;69591;53.282;6.150;2023-09-19T04:15:57;100623.69;;;5.64;76.21
62126;BME280;69591;53.282;6.150;2023-09-19T04:16:59;100621.94;;;5.68;75.99
62126;BME280;69591;53.282;6.150;2023-09-19T04:18:01;100614.38;;;5.70;75.78
62126;BME280;69591;53.282;6.150;2023-09-19T04:19:03;100618.31;;;5.72;76.84
62126;BME280;69591;53.282;6.150;2023-09-19T04:20:06;100607.31;;;5.74;76.78
62126;BME280;69591;53.282;6.150;2023-09-19T04:21:09;100613.13;;;5.76;76.35
62126;BME280;69591;53.282;6.150;2023-09-19T04:22:11;100625.13;;;5.78;76.32
62126;BME280;69591;53.282;6.150;2023-09-19T04:23:12;100623.22;;;5.79;77.11
62126;BME280;69591;53.282;6.150;2023-09-19T04:24:15;100640.28;;;5.83;76.31
62126;BME280;69591;53.282;6.150;2023-09-19T04:25:17;100639.66;;;5.86;76.37
62126;BME280;69591;53.282;6.150;2023-09-19T04:26:19;100621.69;;;5.86;77.30
62126;BME280;69591;53.282;6.150;2023-09-19T04:27:20;100621.84;;;5.90;77.75
62126;BME280;69591;53.282;6.150;2023-09-19T04:28:23;100616.97;;;5.92;77.31
62126;BME280;69591;53.282;6.150;2023-09-19T04:29:24;100615.56;;;5.94;77.48
62126;BME280;69591;53.282;6.150;2023-09-19T04:30:26;100625.97;;;5.96;77.05
62126;BME280;69591;53.282;6.150;2023-09-19T04:31:28;100629.56;;;6.00;78.11
62126;BME280;69591;53.282;6.150;2023-09-19T04:32:29;100640.28;;;6.00;78.35
62126;BME280;69591;53.282;6.150;2023-09-19T04:33:31;100638.88;;;6.02;77.19
62126;BME280;69591;53.282;6.150;2023-09-19T04:34:33;100641.25;;;6.04;78.26
62126;BME280;69591;53.282;6.150;2023-09-19T04:35:35;100639.81;;;6.06;77.41
62126;BME280;69591;53.282;6.150;2023-09-19T04:36:38;100641.06;;;6.09;78.08
62126;BME280;69591;53.282;6.150;2023-09-19T04:37:40;100646.91;;;6.11;78.67
62126;BME280;69591;53.282;6.150;2023-09-19T04:38:42;100644.72;;;6.13;78.42
62126;BME280;69591;53.282;6.150;2023-09-19T04:39:47;100634.00;;;6.13;78.67
62126;BME280;69591;53.282;6.150;2023-09-19T04:40:49;100626.44;;;6.15;78.19
62126;BME280;69591;53.282;6.150;2023-09-19T04:41:51;100624.69;;;6.19;78.63
62126;BME280;69591;53.282;6.150;2023-09-19T04:42:53;100633.22;;;6.21;79.17
62126;BME280;69591;53.282;6.150;2023-09-19T04:43:55;100625.94;;;6.22;79.10
62126;BME280;69591;53.282;6.150;2023-09-19T04:44:57;100629.09;;;6.24;78.68
62126;BME280;69591;53.282;6.150;2023-09-19T04:45:58;100630.38;;;6.26;79.19
62126;BME280;69591;53.282;6.150;2023-09-19T04:47:00;100624.69;;;6.28;79.11
62126;BME280;69591;53.282;6.150;2023-09-19T04:48:02;100634.78;;;6.31;78.79
62126;BME280;69591;53.282;6.150;2023-09-19T04:49:04;100630.19;;;6.31;78.85
62126;BME280;69591;53.282;6.150;2023-09-19T04:50:08;100629.59;;;6.34;78.95
62126;BME280;69591;53.282;6.150;2023-09-19T04:51:10;100633.34;;;6.33;78.87
62126;BME280;69591;53.282;6.150;2023-09-19T04:52:13;100626.28;;;6.37;79.65
62126;BME280;69591;53.282;6.150;2023-09-19T04:53:14;100630.19;;;6.40;79.27
62126;BME280;69591;53.282;6.150;2023-09-19T04:54:16;100623.72;;;6.41;79.24
62126;BME280;69591;53.282;6.150;2023-09-19T04:55:18;100629.56;;;6.43;80.20
62126;BME280;69591;53.282;6.150;2023-09-19T04:56:20;100629.25;;;6.44;80.25
62126;BME280;69591;53.282;6.150;2023-09-19T04:57:22;100625.47;;;6.45;80.14
62126;BME280;69591;53.282;6.150;2023-09-19T04:58:24;100625.91;;;6.47;79.22
62126;BME280;69591;53.282;6.150;2023-09-19T04:59:26;100629.88;;;6.50;79.52
62126;BME280;69591;53.282;6.150;2023-09-19T05:00:28;100625.28;;;6.50;80.59
62126;BME280;69591;53.282;6.150;2023-09-19T05:01:29;100634.59;;;6.53;79.82
62126;BME280;69591;53.282;6.150;2023-09-19T05:02:31;100628.91;;;6.54;80.73
62126;BME280;69591;53.282;6.150;2023-09-19T05:03:33;100621.34;;;6.56;80.51
62126;BME280;69591;53.282;6.150;2023-09-19T05:04:35;100629.41;;;6.56;80.16
62126;BME280;69591;53.282;6.150;2023-09-19T05:05:37;100629.84;;;6.58;80.52
62126;BME280;69591;53.282;6.150;2023-09-19T05:06:38;100630.31;;;6.60;80.23
62126;BME280;69591;53.282;6.150;2023-09-19T05:07:42;100623.56;;;6.63;80.75
62126;BME280;69591;53.282;6.150;2023-09-19T05:08:44;100630.81;;;6.62;81.15
62126;BME280;69591;53.282;6.150;2023-09-19T05:09:45;100630.47;;;6.64;81.03
62126;BME280;69591;53.282;6.150;2023-09-19T05:10:47;100624.00;;;6.65;81.10
62126;BME280;69591;53.282;6.150;2023-09-19T05:11:49;100629.03;;;6.66;81.01
62126;BME280;69591;53.282;6.150;2023-09-19T05:12:53;100633.31;;;6.67;80.63
62126;BME280;69591;53.282;6.150;2023-09-19T05:13:54;100633.31;;;6.67;80.42
62126;BME280;69591;53.282;6.150;2023-09-19T05:14:56;100640.25;;;6.68;80.44
62126;BME280;69591;53.282;6.150;2023-09-19T05:15:59;100645.63;;;6.68;80.02
62126;BME280;69591;53.282;6.150;2023-09-19T05:17:01;100642.13;;;6.68;80.02
62126;BME280;69591;53.282;6.150;2023-09-19T05:18:03;100648.28;;;6.68;79.68
62126;BME280;69591;53.282;6.150;2023-09-19T05:19:05;100648.63;;;6.67;78.48
62126;BME280;69591;53.282;6.150;2023-09-19T05:20:07;100644.03;;;6.67;78.73
62126;BME280;69591;53.282;6.150;2023-09-19T05:21:09;100647.06;;;6.66;77.96
62126;BME280;69591;53.282;6.150;2023-09-19T05:22:11;100650.50;;;6.66;77.99
62126;BME280;69591;53.282;6.150;2023-09-19T05:23:14;100666.16;;;6.64;77.41
62126;BME280;69591;53.282;6.150;2023-09-19T05:24:16;100659.19;;;6.63;77.28
62126;BME280;69591;53.282;6.150;2023-09-19T05:25:17;100653.53;;;6.56;76.74
62126;BME280;69591;53.282;6.150;2023-09-19T05:26:19;100663.47;;;6.56;76.53
62126;BME280;69591;53.282;6.150;2023-09-19T05:27:21;100664.25;;;6.56;75.59
62126;BME280;69591;53.282;6.150;2023-09-19T05:28:22;100675.63;;;6.53;75.63
62126;BME280;69591;53.282;6.150;2023-09-19T05:29:24;100677.34;;;6.49;73.97
62126;BME280;69591;53.282;6.150;2023-09-19T05:30:26;100678.00;;;6.46;73.68
62126;BME280;69591;53.282;6.150;2023-09-19T05:31:28;100681.63;;;6.42;73.36
62126;BME280;69591;53.282;6.150;2023-09-19T05:32:30;100692.19;;;6.38;72.64
62126;BME280;69591;53.282;6.150;2023-09-19T05:33:32;100688.56;;;6.34;71.94
62126;BME280;69591;53.282;6.150;2023-09-19T05:34:33;100701.81;;;6.31;71.19